sensor_id;sensor_type;location;lat;lon;timestamp;pressure;altitude;pressure_sealevel;temperature;humidity
67697;BME280;54486;51.442;6.778;2023-02-20T00:00:27;102480.22;;;5.68;100.00
67697;BME280;54486;51.442;6.778;2023-02-20T00:02:55;102474.22;;;5.69;100.00
67697;BME280;54486;51.442;6.778;2023-02-20T00:05:23;102475.03;;;5.68;100.00
67697;BME280;54486;51.442;6.778;2023-02-20T00:07:50;102475.16;;;5.71;100.00
67697;BME280;54486;51.442;6.778;2023-02-20T00:10:17;102473.66;;;5.76;100.00
67697;BME280;54486;51.442;6.778;2023-02-20T00:12:45;102460.50;;;5.72;100.00
67697;BME280;54486;51.442;6.778;2023-02-20T00:15:13;102464.91;;;5.74;100.00
67697;BME280;54486;51.442;6.778;2023-02-20T00:17:42;102469.88;;;5.68;100.00
67697;BME280;54486;51.442;6.778;2023-02-20T00:20:09;102452.59;;;5.67;100.00
67697;BME280;54486;51.442;6.778;2023-02-20T00:22:36;102452.69;;;5.70;100.00
67697;BME280;54486;51.442;6.778;2023-02-20T00:25:03;102447.53;;;5.70;100.00
67697;BME280;54486;51.442;6.778;2023-02-20T00:27:30;102455.44;;;5.75;100.00
67697;BME280;54486;51.442;6.778;2023-02-20T00:29:57;102453.88;;;5.78;100.00
67697;BME280;54486;51.442;6.778;2023-02-20T00:32:25;102453.16;;;5.82;100.00
67697;BME280;54486;51.442;6.778;2023-02-20T00:34:52;102449.53;;;5.77;100.00
67697;BME280;54486;51.442;6.778;2023-02-20T00:37:19;102447.75;;;5.76;100.00
67697;BME280;54486;51.442;6.778;2023-02-20T00:39:46;102441.00;;;5.80;100.00
67697;BME280;54486;51.442;6.778;2023-02-20T00:42:13;102450.56;;;5.82;100.00
67697;BME280;54486;51.442;6.778;2023-02-20T00:44:40;102432.34;;;5.79;100.00
67697;BME280;54486;51.442;6.778;2023-02-20T00:47:07;102439.56;;;5.87;100.00
67697;BME280;54486;51.442;6.778;2023-02-20T00:49:34;102418.09;;;5.91;100.00
67697;BME280;54486;51.442;6.778;2023-02-20T00:52:02;102416.47;;;5.93;100.00
67697;BME280;54486;51.442;6.778;2023-02-20T00:54:29;102420.75;;;5.92;100.00
67697;BME280;54486;51.442;6.778;2023-02-20T00:56:56;102419.84;;;5.90;100.00
67697;BME280;54486;51.442;6.778;2023-02-20T00:59:22;102412.91;;;5.91;100.00
67697;BME280;54486;51.442;6.778;2023-02-20T01:01:49;102403.41;;;5.90;100.00
67697;BME280;54486;51.442;6.778;2023-02-20T01:04:16;102393.03;;;5.90;100.00
67697;BME280;54486;51.442;6.778;2023-02-20T01:06:44;102389.34;;;5.84;100.00
67697;BME280;54486;51.442;6.778;2023-02-20T01:09:10;102385.97;;;5.85;100.00
67697;BME280;54486;51.442;6.778;2023-02-20T01:11:37;102379.81;;;5.83;100.00
67697;BME280;54486;51.442;6.778;2023-02-20T01:14:04;102373.78;;;5.84;100.00
67697;BME280;54486;51.442;6.778;2023-02-20T01:16:32;102376.50;;;5.86;100.00
67697;BME280;54486;51.442;6.778;2023-02-20T01:18:59;102380.78;;;5.85;100.00
67697;BME280;54486;51.442;6.778;2023-02-20T01:21:26;102375.47;;;5.82;100.00
67697;BME280;54486;51.442;6.778;2023-02-20T01:23:52;102370.28;;;5.82;100.00
67697;BME280;54486;51.442;6.778;2023-02-20T01:26:20;102360.16;;;5.89;100.00
67697;BME280;54486;51.442;6.778;2023-02-20T01:28:47;102350.47;;;5.84;100.00
67697;BME280;54486;51.442;6.778;2023-02-20T01:31:17;102363.44;;;5.84;100.00
67697;BME280;54486;51.442;6.778;2023-02-20T01:33:44;102363.59;;;5.88;100.00
67697;BME280;54486;51.442;6.778;2023-02-20T01:36:11;102368.75;;;5.88;100.00
67697;BME280;54486;51.442;6.778;2023-02-20T01:38:39;102377.41;;;5.88;100.00
67697;BME280;54486;51.442;6.778;2023-02-20T01:41:08;102377.38;;;5.87;100.00
67697;BME280;54486;51.442;6.778;2023-02-20T01:43:35;102377.38;;;5.87;100.00
67697;BME280;54486;51.442;6.778;2023-02-20T01:48:48;102365.25;;;5.85;100.00
67697;BME280;54486;51.442;6.778;2023-02-20T01:51:15;102365.09;;;5.82;100.00
67697;BME280;54486;51.442;6.778;2023-02-20T01:53:42;102361.84;;;5.87;100.00
67697;BME280;54486;51.442;6.778;2023-02-20T01:56:13;102360.13;;;5.87;100.00
67697;BME280;54486;51.442;6.778;2023-02-20T01:58:41;102356.66;;;5.87;100.00
67697;BME280;54486;51.442;6.778;2023-02-20T02:01:09;102353.22;;;5.88;100.00
67697;BME280;54486;51.442;6.778;2023-02-20T02:06:28;102348.16;;;5.91;100.00
67697;BME280;54486;51.442;6.778;2023-02-20T02:08:56;102337.78;;;5.91;100.00
67697;BME280;54486;51.442;6.778;2023-02-20T02:11:27;102336.03;;;5.90;100.00
67697;BME280;54486;51.442;6.778;2023-02-20T02:13:54;102341.44;;;5.96;100.00
67697;BME280;54486;51.442;6.778;2023-02-20T02:27:08;102292.25;;;5.73;100.00
67697;BME280;54486;51.442;6.778;2023-02-20T02:43:08;102276.59;;;5.70;100.00
67697;BME280;54486;51.442;6.778;2023-02-20T02:48:27;102274.22;;;5.76;100.00
67697;BME280;54486;51.442;6.778;2023-02-20T02:51:15;102281.88;;;5.73;100.00
67697;BME280;54486;51.442;6.778;2023-02-20T02:56:32;102275.03;;;5.75;100.00
67697;BME280;54486;51.442;6.778;2023-02-20T02:59:01;102271.75;;;5.79;100.00
67697;BME280;54486;51.442;6.778;2023-02-20T03:01:29;102277.69;;;5.77;100.00
67697;BME280;54486;51.442;6.778;2023-02-20T03:03:59;102266.66;;;5.82;100.00
67697;BME280;54486;51.442;6.778;2023-02-20T03:06:30;102269.19;;;5.81;100.00
67697;BME280;54486;51.442;6.778;2023-02-20T03:09:02;102247.84;;;5.87;100.00
67697;BME280;54486;51.442;6.778;2023-02-20T03:11:33;102249.59;;;5.88;100.00
67697;BME280;54486;51.442;6.778;2023-02-20T03:14:09;102244.63;;;5.94;100.00
67697;BME280;54486;51.442;6.778;2023-02-20T03:20:02;102238.13;;;6.05;100.00
67697;BME280;54486;51.442;6.778;2023-02-20T03:22:31;102231.38;;;6.10;100.00
67697;BME280;54486;51.442;6.778;2023-02-20T03:25:18;102239.50;;;6.19;100.00
67697;BME280;54486;51.442;6.778;2023-02-20T03:27:53;102235.63;;;6.33;100.00
67697;BME280;54486;51.442;6.778;2023-02-20T03:33:09;102221.69;;;6.29;100.00
67697;BME280;54486;51.442;6.778;2023-02-20T03:36:06;102224.97;;;6.24;100.00
67697;BME280;54486;51.442;6.778;2023-02-20T03:38:58;102221.56;;;6.25;100.00
67697;BME280;54486;51.442;6.778;2023-02-20T03:41:45;102226.63;;;6.22;100.00
67697;BME280;54486;51.442;6.778;2023-02-20T03:44:31;102232.56;;;6.19;100.00
67697;BME280;54486;51.442;6.778;2023-02-20T03:47:00;102228.16;;;6.17;100.00
67697;BME280;54486;51.442;6.778;2023-02-20T03:49:31;102228.25;;;6.18;100.00
67697;BME280;54486;51.442;6.778;2023-02-20T03:52:01;102221.44;;;6.22;100.00
67697;BME280;54486;51.442;6.778;2023-02-20T03:54:29;102236.03;;;6.20;100.00
67697;BME280;54486;51.442;6.778;2023-02-20T03:56:58;102233.34;;;6.17;100.00
67697;BME280;54486;51.442;6.778;2023-02-20T03:59:34;102229.13;;;6.19;100.00
67697;BME280;54486;51.442;6.778;2023-02-20T04:02:10;102217.69;;;6.14;100.00
67697;BME280;54486;51.442;6.778;2023-02-20T04:04:44;102221.34;;;6.19;100.00
67697;BME280;54486;51.442;6.778;2023-02-20T04:07:22;102226.53;;;6.19;100.00
67697;BME280;54486;51.442;6.778;2023-02-20T04:09:51;102231.59;;;6.16;100.00
67697;BME280;54486;51.442;6.778;2023-02-20T04:12:24;102228.06;;;6.14;100.00
67697;BME280;54486;51.442;6.778;2023-02-20T04:14:53;102228.84;;;6.11;100.00
67697;BME280;54486;51.442;6.778;2023-02-20T04:17:24;102218.59;;;6.14;100.00
67697;BME280;54486;51.442;6.778;2023-02-20T04:19:53;102215.81;;;6.10;100.00
67697;BME280;54486;51.442;6.778;2023-02-20T04:22:21;102215.00;;;6.11;100.00
67697;BME280;54486;51.442;6.778;2023-02-20T04:24:55;102218.97;;;6.00;100.00
67697;BME280;54486;51.442;6.778;2023-02-20T04:27:24;102222.38;;;5.99;100.00
67697;BME280;54486;51.442;6.778;2023-02-20T04:29:51;102220.59;;;5.98;100.00
67697;BME280;54486;51.442;6.778;2023-02-20T04:32:18;102212.13;;;6.02;100.00
67697;BME280;54486;51.442;6.778;2023-02-20T04:34:45;102222.28;;;5.96;100.00
67697;BME280;54486;51.442;6.778;2023-02-20T04:37:14;102222.28;;;5.96;100.00
67697;BME280;54486;51.442;6.778;2023-02-20T04:39:41;102217.09;;;5.96;100.00
67697;BME280;54486;51.442;6.778;2023-02-20T04:42:09;102225.69;;;5.95;100.00
67697;BME280;54486;51.442;6.778;2023-02-20T04:44:36;102230.97;;;5.98;100.00
67697;BME280;54486;51.442;6.778;2023-02-20T04:47:04;102221.59;;;6.01;100.00
67697;BME280;54486;51.442;6.778;2023-02-20T04:49:33;102225.19;;;6.06;100.00
67697;BME280;54486;51.442;6.778;2023-02-20T04:51:59;102230.16;;;5.99;100.00
67697;BME280;54486;51.442;6.778;2023-02-20T04:54:26;102223.38;;;6.02;100.00
67697;BME280;54486;51.442;6.778;2023-02-20T04:56:53;102225.78;;;5.98;100.00
67697;BME280;54486;51.442;6.778;2023-02-20T04:59:20;102227.44;;;5.96;100.00
67697;BME280;54486;51.442;6.778;2023-02-20T05:01:47;102217.09;;;5.96;100.00
67697;BME280;54486;51.442;6.778;2023-02-20T05:04:20;102200.75;;;5.98;100.00
67697;BME280;54486;51.442;6.778;2023-02-20T05:06:50;102213.78;;;6.00;100.00
67697;BME280;54486;51.442;6.778;2023-02-20T05:09:17;102212.81;;;5.98;100.00
67697;BME280;54486;51.442;6.778;2023-02-20T05:11:44;102207.66;;;5.98;100.00
67697;BME280;54486;51.442;6.778;2023-02-20T05:14:12;102207.72;;;5.99;100.00
67697;BME280;54486;51.442;6.778;2023-02-20T05:16:46;102206.25;;;6.07;100.00
67697;BME280;54486;51.442;6.778;2023-02-20T05:19:13;102193.97;;;6.02;100.00
67697;BME280;54486;51.442;6.778;2023-02-20T05:21:44;102202.66;;;6.04;100.00
67697;BME280;54486;51.442;6.778;2023-02-20T05:24:30;102196.78;;;6.08;100.00
67697;BME280;54486;51.442;6.778;2023-02-20T05:26:57;102197.56;;;6.05;100.00
67697;BME280;54486;51.442;6.778;2023-02-20T05:29:24;102200.19;;;6.07;100.00
67697;BME280;54486;51.442;6.778;2023-02-20T05:31:51;102193.25;;;6.06;100.00
67697;BME280;54486;51.442;6.778;2023-02-20T05:34:19;102196.66;;;6.05;100.00
67697;BME280;54486;51.442;6.778;2023-02-20T05:36:52;102196.78;;;6.08;100.00
67697;BME280;54486;51.442;6.778;2023-02-20T05:39:19;102193.25;;;6.06;100.00
67697;BME280;54486;51.442;6.778;2023-02-20T05:41:46;102184.72;;;6.10;100.00
67697;BME280;54486;51.442;6.778;2023-02-20T05:44:14;102200.97;;;6.04;100.00
67697;BME280;54486;51.442;6.778;2023-02-20T05:46:42;102199.53;;;6.12;100.00
67697;BME280;54486;51.442;6.778;2023-02-20T05:49:09;102193.47;;;6.12;100.00
67697;BME280;54486;51.442;6.778;2023-02-20T05:51:37;102200.28;;;6.10;100.00
67697;BME280;54486;51.442;6.778;2023-02-20T05:54:04;102189.78;;;6.05;100.00
67697;BME280;54486;51.442;6.778;2023-02-20T05:56:39;102180.44;;;6.10;100.00
67697;BME280;54486;51.442;6.778;2023-02-20T05:59:06;102190.69;;;6.07;100.00
67697;BME280;54486;51.442;6.778;2023-02-20T06:01:33;102196.78;;;6.08;100.00
67697;BME280;54486;51.442;6.778;2023-02-20T06:04:00;102193.34;;;6.09;100.00
67697;BME280;54486;51.442;6.778;2023-02-20T06:06:46;102186.50;;;6.11;100.00
67697;BME280;54486;51.442;6.778;2023-02-20T06:09:13;102186.50;;;6.11;100.00
67697;BME280;54486;51.442;6.778;2023-02-20T06:11:50;102193.59;;;6.16;100.00
67697;BME280;54486;51.442;6.778;2023-02-20T06:14:18;102200.38;;;6.13;100.00
67697;BME280;54486;51.442;6.778;2023-02-20T06:16:46;102195.09;;;6.10;100.00
67697;BME280;54486;51.442;6.778;2023-02-20T06:19:17;102197.84;;;6.14;100.00
67697;BME280;54486;51.442;6.778;2023-02-20T06:21:44;102202.06;;;6.11;100.00
67697;BME280;54486;51.442;6.778;2023-02-20T06:24:11;102192.59;;;6.13;100.00
67697;BME280;54486;51.442;6.778;2023-02-20T06:26:39;102204.94;;;6.20;100.00
67697;BME280;54486;51.442;6.778;2023-02-20T06:29:07;102221.22;;;6.16;100.00
67697;BME280;54486;51.442;6.778;2023-02-20T06:31:34;102223.88;;;6.17;100.00
67697;BME280;54486;51.442;6.778;2023-02-20T06:34:02;102235.75;;;6.11;100.00
67697;BME280;54486;51.442;6.778;2023-02-20T06:36:31;102227.88;;;6.08;100.00
67697;BME280;54486;51.442;6.778;2023-02-20T06:38:59;102227.88;;;6.08;100.00
67697;BME280;54486;51.442;6.778;2023-02-20T06:41:27;102222.78;;;6.11;100.00
67697;BME280;54486;51.442;6.778;2023-02-20T06:43:54;102227.97;;;6.11;100.00
67697;BME280;54486;51.442;6.778;2023-02-20T06:46:21;102240.75;;;6.06;100.00
67697;BME280;54486;51.442;6.778;2023-02-20T06:48:49;102236.47;;;6.07;100.00
67697;BME280;54486;51.442;6.778;2023-02-20T06:51:27;102236.34;;;6.04;100.00
67697;BME280;54486;51.442;6.778;2023-02-20T06:53:55;102234.72;;;6.06;100.00
67697;BME280;54486;51.442;6.778;2023-02-20T06:56:28;102232.94;;;6.05;100.00
67697;BME280;54486;51.442;6.778;2023-02-20T06:58:56;102222.69;;;6.08;100.00
67697;BME280;54486;51.442;6.778;2023-02-20T07:01:24;102233.03;;;6.08;100.00
67697;BME280;54486;51.442;6.778;2023-02-20T07:03:53;102223.88;;;6.17;100.00
67697;BME280;54486;51.442;6.778;2023-02-20T07:06:21;102215.81;;;6.10;100.00
67697;BME280;54486;51.442;6.778;2023-02-20T07:08:48;102228.06;;;6.14;100.00
67697;BME280;54486;51.442;6.778;2023-02-20T07:11:16;102225.28;;;6.08;100.00
67697;BME280;54486;51.442;6.778;2023-02-20T07:13:44;102222.97;;;6.17;100.00
67697;BME280;54486;51.442;6.778;2023-02-20T07:16:12;102213.56;;;6.19;100.00
67697;BME280;54486;51.442;6.778;2023-02-20T07:18:39;102230.75;;;6.17;100.00
67697;BME280;54486;51.442;6.778;2023-02-20T07:21:06;102231.72;;;6.19;100.00
67697;BME280;54486;51.442;6.778;2023-02-20T07:23:33;102221.56;;;6.25;100.00
67697;BME280;54486;51.442;6.778;2023-02-20T07:26:00;102230.97;;;6.23;100.00
67697;BME280;54486;51.442;6.778;2023-02-20T07:28:27;102232.13;;;6.31;100.00
67697;BME280;54486;51.442;6.778;2023-02-20T07:30:54;102240.63;;;6.27;100.00
67697;BME280;54486;51.442;6.778;2023-02-20T07:33:21;102243.56;;;6.37;100.00
67697;BME280;54486;51.442;6.778;2023-02-20T07:35:48;102234.09;;;6.38;100.00
67697;BME280;54486;51.442;6.778;2023-02-20T07:38:15;102230.75;;;6.42;100.00
67697;BME280;54486;51.442;6.778;2023-02-20T07:40:42;102216.75;;;6.37;100.00
67697;BME280;54486;51.442;6.778;2023-02-20T07:43:09;102224.66;;;6.42;100.00
67697;BME280;54486;51.442;6.778;2023-02-20T07:45:36;102220.47;;;6.45;100.00
67697;BME280;54486;51.442;6.778;2023-02-20T07:48:04;102230.94;;;6.48;99.71
67697;BME280;54486;51.442;6.778;2023-02-20T07:50:32;102226.84;;;6.55;99.05
67697;BME280;54486;51.442;6.778;2023-02-20T07:52:59;102224.31;;;6.56;99.25
67697;BME280;54486;51.442;6.778;2023-02-20T07:55:26;102211.47;;;6.61;99.53
67697;BME280;54486;51.442;6.778;2023-02-20T07:57:54;102219.41;;;6.65;98.79
67697;BME280;54486;51.442;6.778;2023-02-20T08:00:25;102233.97;;;6.62;98.85
67697;BME280;54486;51.442;6.778;2023-02-20T08:02:52;102224.59;;;6.65;98.77
67697;BME280;54486;51.442;6.778;2023-02-20T08:05:19;102235.25;;;6.74;98.55
67697;BME280;54486;51.442;6.778;2023-02-20T08:07:47;102218.03;;;6.76;98.83
67697;BME280;54486;51.442;6.778;2023-02-20T08:10:15;102207.16;;;6.88;97.92
67697;BME280;54486;51.442;6.778;2023-02-20T08:12:43;102219.31;;;6.89;98.05
67697;BME280;54486;51.442;6.778;2023-02-20T08:15:10;102219.31;;;6.89;97.59
67697;BME280;54486;51.442;6.778;2023-02-20T08:17:40;102220.56;;;7.02;96.75
67697;BME280;54486;51.442;6.778;2023-02-20T08:20:13;102217.09;;;7.03;96.83
67697;BME280;54486;51.442;6.778;2023-02-20T08:22:44;102215.53;;;7.08;97.38
67697;BME280;54486;51.442;6.778;2023-02-20T08:25:11;102225.06;;;7.09;96.62
67697;BME280;54486;51.442;6.778;2023-02-20T08:27:45;102220.94;;;7.15;96.39
67697;BME280;54486;51.442;6.778;2023-02-20T08:30:17;102228.06;;;7.21;96.03
67697;BME280;54486;51.442;6.778;2023-02-20T08:32:45;102220.38;;;7.25;95.66
67697;BME280;54486;51.442;6.778;2023-02-20T08:35:12;102212.72;;;7.30;95.35
67697;BME280;54486;51.442;6.778;2023-02-20T08:37:40;102210.13;;;7.30;96.09
67697;BME280;54486;51.442;6.778;2023-02-20T08:40:07;102207.53;;;7.30;96.25
67697;BME280;54486;51.442;6.778;2023-02-20T08:42:34;102206.69;;;7.31;95.56
67697;BME280;54486;51.442;6.778;2023-02-20T08:45:05;102205.94;;;7.35;95.34
67697;BME280;54486;51.442;6.778;2023-02-20T08:47:32;102208.06;;;7.48;94.40
67697;BME280;54486;51.442;6.778;2023-02-20T08:50:02;102214.47;;;7.31;94.58
67697;BME280;54486;51.442;6.778;2023-02-20T08:52:29;102205.69;;;7.26;95.28
67697;BME280;54486;51.442;6.778;2023-02-20T08:55:00;102201.31;;;7.25;95.24
67697;BME280;54486;51.442;6.778;2023-02-20T08:57:27;102210.94;;;7.27;94.85
67697;BME280;54486;51.442;6.778;2023-02-20T08:59:56;102204.28;;;7.37;95.03
67697;BME280;54486;51.442;6.778;2023-02-20T09:02:23;102207.81;;;7.39;94.62
67697;BME280;54486;51.442;6.778;2023-02-20T09:04:52;102212.81;;;7.33;94.60
67697;BME280;54486;51.442;6.778;2023-02-20T09:07:18;102209.44;;;7.35;95.06
67697;BME280;54486;51.442;6.778;2023-02-20T09:09:49;102218.28;;;7.42;94.97
67697;BME280;54486;51.442;6.778;2023-02-20T09:12:17;102223.38;;;7.39;94.57
67697;BME280;54486;51.442;6.778;2023-02-20T09:14:44;102220.06;;;7.44;94.68
67697;BME280;54486;51.442;6.778;2023-02-20T09:17:11;102230.50;;;7.46;94.03
67697;BME280;54486;51.442;6.778;2023-02-20T09:19:39;102230.44;;;7.43;94.54
67697;BME280;54486;51.442;6.778;2023-02-20T09:22:07;102213.09;;;7.42;94.65
67697;BME280;54486;51.442;6.778;2023-02-20T09:24:35;102209.75;;;7.46;94.43
67697;BME280;54486;51.442;6.778;2023-02-20T09:27:03;102218.28;;;7.42;95.15
67697;BME280;54486;51.442;6.778;2023-02-20T09:29:32;102201.00;;;7.44;94.43
67697;BME280;54486;51.442;6.778;2023-02-20T09:32:00;102211.56;;;7.50;94.89
67697;BME280;54486;51.442;6.778;2023-02-20T09:34:28;102205.03;;;7.64;94.89
67697;BME280;54486;51.442;6.778;2023-02-20T09:36:55;102218.78;;;7.60;93.81
67697;BME280;54486;51.442;6.778;2023-02-20T09:39:22;102200.81;;;7.68;94.42
67697;BME280;54486;51.442;6.778;2023-02-20T09:44:54;102207.16;;;7.79;93.92
67697;BME280;54486;51.442;6.778;2023-02-20T09:47:26;102201.94;;;7.77;94.23
67697;BME280;54486;51.442;6.778;2023-02-20T09:49:56;102222.66;;;7.74;93.62
67697;BME280;54486;51.442;6.778;2023-02-20T09:52:26;102206.97;;;7.71;92.99
67697;BME280;54486;51.442;6.778;2023-02-20T09:54:57;102208.72;;;7.72;93.30
67697;BME280;54486;51.442;6.778;2023-02-20T09:57:26;102205.03;;;7.64;93.74
67697;BME280;54486;51.442;6.778;2023-02-20T10:00:09;102210.41;;;7.70;93.91
67697;BME280;54486;51.442;6.778;2023-02-20T10:02:40;102216.50;;;7.72;93.25
67697;BME280;54486;51.442;6.778;2023-02-20T10:07:44;102215.00;;;7.80;93.99
67697;BME280;54486;51.442;6.778;2023-02-20T10:12:53;102209.94;;;7.85;93.41
67697;BME280;54486;51.442;6.778;2023-02-20T10:25:34;102190.09;;;7.88;93.20
67697;BME280;54486;51.442;6.778;2023-02-20T10:30:37;102179.16;;;8.00;93.60
67697;BME280;54486;51.442;6.778;2023-02-20T10:36:24;102180.50;;;8.20;92.16
67697;BME280;54486;51.442;6.778;2023-02-20T10:38:33;102178.88;;;8.24;92.35
67697;BME280;54486;51.442;6.778;2023-02-20T10:41:04;102182.19;;;8.17;91.90
67697;BME280;54486;51.442;6.778;2023-02-20T10:43:43;102181.16;;;8.10;92.03
67697;BME280;54486;51.442;6.778;2023-02-20T10:46:17;102176.09;;;8.16;92.19
67697;BME280;54486;51.442;6.778;2023-02-20T10:48:46;102181.47;;;8.24;92.09
67697;BME280;54486;51.442;6.778;2023-02-20T10:51:36;102178.94;;;8.27;92.09
67697;BME280;54486;51.442;6.778;2023-02-20T10:54:03;102154.75;;;8.28;91.96
67697;BME280;54486;51.442;6.778;2023-02-20T10:56:40;102165.22;;;8.31;91.67
67697;BME280;54486;51.442;6.778;2023-02-20T11:01:43;102153.38;;;8.42;91.35
67697;BME280;54486;51.442;6.778;2023-02-20T11:04:14;102149.81;;;8.40;91.04
67697;BME280;54486;51.442;6.778;2023-02-20T11:06:44;102149.75;;;8.37;91.13
67697;BME280;54486;51.442;6.778;2023-02-20T11:09:15;102156.88;;;8.44;91.24
67697;BME280;54486;51.442;6.778;2023-02-20T11:11:44;102160.22;;;8.40;91.39
67697;BME280;54486;51.442;6.778;2023-02-20T11:17:40;102161.16;;;8.42;91.36
67697;BME280;54486;51.442;6.778;2023-02-20T11:20:00;102151.66;;;8.44;91.00
67697;BME280;54486;51.442;6.778;2023-02-20T11:22:43;102145.69;;;8.48;91.38
67697;BME280;54486;51.442;6.778;2023-02-20T11:25:20;102146.47;;;8.44;90.96
67697;BME280;54486;51.442;6.778;2023-02-20T11:27:49;102160.22;;;8.40;90.60
67697;BME280;54486;51.442;6.778;2023-02-20T11:30:30;102153.28;;;8.39;90.82
67697;BME280;54486;51.442;6.778;2023-02-20T11:35:33;102149.75;;;8.37;91.26
67697;BME280;54486;51.442;6.778;2023-02-20T11:40:41;102140.50;;;8.48;91.34
67697;BME280;54486;51.442;6.778;2023-02-20T11:43:19;102152.34;;;8.37;91.67
67697;BME280;54486;51.442;6.778;2023-02-20T11:48:41;102143.03;;;8.45;91.47
67697;BME280;54486;51.442;6.778;2023-02-20T11:51:30;102151.63;;;8.42;91.72
67697;BME280;54486;51.442;6.778;2023-02-20T11:56:36;102156.72;;;8.38;91.88
67697;BME280;54486;51.442;6.778;2023-02-20T12:01:50;102174.03;;;8.36;92.14
67697;BME280;54486;51.442;6.778;2023-02-20T12:04:26;102158.50;;;8.39;92.87
67697;BME280;54486;51.442;6.778;2023-02-20T12:06:54;102151.53;;;8.38;93.08
67697;BME280;54486;51.442;6.778;2023-02-20T12:09:23;102162.75;;;8.37;92.57
67697;BME280;54486;51.442;6.778;2023-02-20T12:11:52;102152.44;;;8.40;92.91
67697;BME280;54486;51.442;6.778;2023-02-20T12:14:21;102131.56;;;8.37;92.96
67697;BME280;54486;51.442;6.778;2023-02-20T12:19:18;102155.03;;;8.40;93.13
67697;BME280;54486;51.442;6.778;2023-02-20T12:21:54;102149.81;;;8.40;92.52
67697;BME280;54486;51.442;6.778;2023-02-20T12:27:49;102136.06;;;8.44;93.03
67697;BME280;54486;51.442;6.778;2023-02-20T12:30:09;102126.81;;;8.57;92.58
67697;BME280;54486;51.442;6.778;2023-02-20T12:35:24;102120.72;;;8.56;92.73
67697;BME280;54486;51.442;6.778;2023-02-20T12:37:58;102105.88;;;8.50;92.54
67697;BME280;54486;51.442;6.778;2023-02-20T12:40:44;102092.88;;;8.52;92.98
67697;BME280;54486;51.442;6.778;2023-02-20T12:48:50;102082.63;;;8.58;92.92
67697;BME280;54486;51.442;6.778;2023-02-20T12:54:19;102069.88;;;8.70;92.85
67697;BME280;54486;51.442;6.778;2023-02-20T13:02:32;102054.06;;;8.61;92.94
67697;BME280;54486;51.442;6.778;2023-02-20T13:05:10;102045.25;;;8.55;93.38
67697;BME280;54486;51.442;6.778;2023-02-20T13:07:44;102042.72;;;8.59;93.94
67697;BME280;54486;51.442;6.778;2023-02-20T13:10:14;102036.88;;;8.68;92.58
67697;BME280;54486;51.442;6.778;2023-02-20T13:12:42;102048.00;;;8.62;93.24
67697;BME280;54486;51.442;6.778;2023-02-20T13:20:23;102013.69;;;8.81;92.09
67697;BME280;54486;51.442;6.778;2023-02-20T13:22:58;102006.81;;;8.83;92.38
67697;BME280;54486;51.442;6.778;2023-02-20T13:28:00;102015.34;;;8.76;93.12
67697;BME280;54486;51.442;6.778;2023-02-20T13:30:28;102042.97;;;8.71;93.07
67697;BME280;54486;51.442;6.778;2023-02-20T13:35:51;102047.41;;;8.75;93.45
67697;BME280;54486;51.442;6.778;2023-02-20T13:38:20;102041.31;;;8.73;93.10
67697;BME280;54486;51.442;6.778;2023-02-20T13:46:09;102028.88;;;8.60;94.72
67697;BME280;54486;51.442;6.778;2023-02-20T13:48:44;102035.81;;;8.58;94.70
67697;BME280;54486;51.442;6.778;2023-02-20T13:53:47;102032.13;;;8.50;95.53
67697;BME280;54486;51.442;6.778;2023-02-20T13:56:16;102027.78;;;8.49;95.14
67697;BME280;54486;51.442;6.778;2023-02-20T13:58:43;102014.72;;;8.46;95.86
67697;BME280;54486;51.442;6.778;2023-02-20T14:01:11;102021.84;;;8.56;95.59
67697;BME280;54486;51.442;6.778;2023-02-20T14:03:38;102024.25;;;8.45;95.97
67697;BME280;54486;51.442;6.778;2023-02-20T14:06:13;102026.81;;;8.44;96.08
67697;BME280;54486;51.442;6.778;2023-02-20T14:08:42;102032.09;;;8.47;96.50
67697;BME280;54486;51.442;6.778;2023-02-20T14:11:11;102017.47;;;8.54;96.31
67697;BME280;54486;51.442;6.778;2023-02-20T14:13:43;102007.13;;;8.55;95.66
67697;BME280;54486;51.442;6.778;2023-02-20T14:18:58;102019.19;;;8.53;96.02
67697;BME280;54486;51.442;6.778;2023-02-20T14:21:26;102006.19;;;8.53;96.38
67697;BME280;54486;51.442;6.778;2023-02-20T14:24:02;102007.91;;;8.51;96.03
67697;BME280;54486;51.442;6.778;2023-02-20T14:26:37;102002.69;;;8.51;96.71
67697;BME280;54486;51.442;6.778;2023-02-20T14:29:06;101997.44;;;8.48;97.06
67697;BME280;54486;51.442;6.778;2023-02-20T14:31:44;101999.16;;;8.49;97.07
67697;BME280;54486;51.442;6.778;2023-02-20T14:37:01;101999.16;;;8.49;97.49
67697;BME280;54486;51.442;6.778;2023-02-20T14:42:00;101994.75;;;8.45;97.29
67697;BME280;54486;51.442;6.778;2023-02-20T14:44:28;102000.94;;;8.50;97.30
67697;BME280;54486;51.442;6.778;2023-02-20T14:46:58;101999.16;;;8.49;97.44
67697;BME280;54486;51.442;6.778;2023-02-20T14:49:28;101994.88;;;8.51;97.57
67697;BME280;54486;51.442;6.778;2023-02-20T14:52:18;101993.13;;;8.50;97.19
67697;BME280;54486;51.442;6.778;2023-02-20T14:54:57;101981.88;;;8.51;97.40
67697;BME280;54486;51.442;6.778;2023-02-20T14:57:24;101987.28;;;8.60;97.22
67697;BME280;54486;51.442;6.778;2023-02-20T15:00:06;101992.41;;;8.57;97.57
67697;BME280;54486;51.442;6.778;2023-02-20T15:02:32;101979.47;;;8.60;97.77
67697;BME280;54486;51.442;6.778;2023-02-20T15:05:04;102002.81;;;8.57;97.52
67697;BME280;54486;51.442;6.778;2023-02-20T15:07:33;101999.31;;;8.57;97.51
67697;BME280;54486;51.442;6.778;2023-02-20T15:10:02;101981.09;;;8.55;97.76
67697;BME280;54486;51.442;6.778;2023-02-20T15:12:33;101982.00;;;8.57;98.28
67697;BME280;54486;51.442;6.778;2023-02-20T15:15:22;101983.81;;;8.61;97.75
67697;BME280;54486;51.442;6.778;2023-02-20T15:17:47;101973.31;;;8.55;97.89
67697;BME280;54486;51.442;6.778;2023-02-20T15:23:18;101975.03;;;8.55;97.98
67697;BME280;54486;51.442;6.778;2023-02-20T15:25:50;101985.44;;;8.56;98.32